logo
Search for airport 
image banner adimage banner adimage banner ad
image banner ad

EYPP - Panevezys/Pajuostis

Located in , Lithuania

ICAO - EYPP, IATA - PNV

Data provided by Airmate  

General information

Coordinates: N55°43'45" E24°27'37"
Elevation is 197 feet MSL.
 
View others Airports in Panevežys County

Operational data

Special qualification required
Current time UTC:
Current local time:
TAF: TAF EYSA 282000Z 2821/2906 VRB05KT 9000 NSC TEMPO 2900/2904 5000 MIFG BR
View NOTAMs / SUP AIP / TFR affecting this airport [VIEW]
Communications frequencies: [VIEW]

Runways:

RWY identifierQFULength (ft)Width (ft)SurfaceLDA (ft)
13137°6562131CON
31317°6562131CON

Airport contact information

Address: Lithuania

Satellite view of EYPP